Time;durP1;ratioP1;P1;durP2;ratioP2;P2;SDS_P1;SDS_P2;PMS_P1;PMS_P2;Temp;Humidity;BMP_temperature;BMP_pressure;BME280_temperature;BME280_humidity;BME280_pressure;Samples;Min_cycle;Max_cycle;Signal;HPM_P1;HPM_P2
2022/03/16 00:00:09;;;;;;;;;18.33;15.33;;;;;29.29;27.54;101580.78;5075597;27;45448;-82
2022/03/16 00:02:34;;;;;;;;;17.33;16.00;;;;;29.23;27.35;101554.66;5075676;28;45242;-83
2022/03/16 00:04:59;;;;;;;;;16.00;15.00;;;;;29.35;27.37;101566.88;5075799;27;45339;-82
2022/03/16 00:07:25;;;;;;;;;16.33;14.33;;;;;29.24;27.62;101541.84;5075959;27;45457;-82
2022/03/16 00:09:50;;;;;;;;;13.33;13.33;;;;;29.26;27.26;101567.28;5075812;27;45359;-83
2022/03/16 00:12:16;;;;;;;;;15.33;15.33;;;;;29.14;27.26;101560.53;5075179;27;45407;-83
2022/03/16 00:14:42;;;;;;;;;15.67;15.67;;;;;29.04;27.22;101559.16;5075880;28;45343;-83
2022/03/16 00:17:08;;;;;;;;;23.67;18.33;;;;;29.19;27.43;101565.75;5075452;27;45576;-83
2022/03/16 00:19:34;;;;;;;;;21.33;19.00;;;;;28.88;27.21;101512.53;5073891;28;48088;-82
2022/03/16 00:22:02;;;;;;;;;16.33;16.00;;;;;29.23;27.25;101570.13;5075285;27;45396;-82
2022/03/16 00:24:27;;;;;;;;;17.00;16.00;;;;;29.20;27.19;101553.88;5075450;28;45528;-83
2022/03/16 00:26:53;;;;;;;;;18.33;17.33;;;;;29.11;27.20;101540.63;5075654;27;45563;-82
2022/03/16 00:29:18;;;;;;;;;15.00;13.00;;;;;29.20;27.43;101559.34;5075560;27;45433;-83
2022/03/16 00:31:44;;;;;;;;;15.00;13.67;;;;;29.00;27.35;101524.72;5076416;28;45257;-83
2022/03/16 00:34:09;;;;;;;;;14.67;13.33;;;;;29.23;27.50;101557.38;5078945;27;45235;-83
2022/03/16 00:36:35;;;;;;;;;13.00;12.00;;;;;29.19;27.11;101552.09;5078039;28;45525;-83
2022/03/16 00:39:00;;;;;;;;;19.67;14.67;;;;;29.04;27.37;101530.00;5078563;27;45440;-83
2022/03/16 00:41:25;;;;;;;;;15.67;15.67;;;;;29.22;27.16;101557.41;5079083;27;45246;-83
2022/03/16 00:43:52;;;;;;;;;12.00;11.00;;;;;29.23;27.19;101553.72;5079270;27;45235;-83
2022/03/16 00:46:17;;;;;;;;;14.00;13.67;;;;;29.16;27.09;101552.25;5079055;27;45203;-83
2022/03/16 00:48:42;;;;;;;;;13.33;11.33;;;;;29.17;27.30;101548.53;5078872;27;46371;-83
2022/03/16 00:51:09;;;;;;;;;13.67;12.00;;;;;29.15;27.31;101545.00;5078681;27;45467;-83
2022/03/16 00:53:34;;;;;;;;;12.00;10.67;;;;;29.01;27.04;101549.25;5077260;28;45387;-83
2022/03/16 00:56:01;;;;;;;;;15.00;14.00;;;;;28.76;27.40;101519.44;5078767;27;45509;-83
2022/03/16 00:58:27;;;;;;;;;13.00;11.33;;;;;28.88;27.57;101539.84;5078515;27;46169;-83
2022/03/16 01:00:52;;;;;;;;;13.67;12.33;;;;;28.68;27.20;101514.34;5078310;27;45467;-83
2022/03/16 01:03:18;;;;;;;;;14.33;13.00;;;;;28.81;27.38;101532.91;5077176;28;45418;-84
2022/03/16 01:05:43;;;;;;;;;12.33;11.67;;;;;28.96;27.36;101542.22;5078659;27;45607;-83
2022/03/16 01:08:08;;;;;;;;;13.00;12.00;;;;;28.96;27.18;101547.69;5078104;27;45411;-83
2022/03/16 01:10:34;;;;;;;;;15.67;14.00;;;;;28.90;27.45;101536.09;5078644;27;45315;-83
2022/03/16 01:12:59;;;;;;;;;11.00;11.00;;;;;29.01;27.35;101542.91;5078454;27;45454;-83
2022/03/16 01:15:24;;;;;;;;;10.00;10.00;;;;;28.84;26.90;101505.44;5078598;27;45319;-83
2022/03/16 01:17:50;;;;;;;;;11.33;10.33;;;;;28.55;27.42;101456.66;5078134;27;45442;-83
2022/03/16 01:20:17;;;;;;;;;15.67;15.00;;;;;29.05;27.10;101519.97;5077892;27;45442;-83
2022/03/16 01:22:42;;;;;;;;;15.00;12.00;;;;;28.99;27.16;101502.00;5078440;28;45504;-83
2022/03/16 01:25:07;;;;;;;;;18.33;14.33;;;;;29.05;27.46;101519.97;5078324;27;45502;-83
2022/03/16 01:27:33;;;;;;;;;14.33;12.00;;;;;28.95;27.17;101500.38;5078103;27;45427;-83
2022/03/16 01:29:58;;;;;;;;;20.00;16.33;;;;;29.09;26.99;101519.72;5078422;27;45732;-83
2022/03/16 01:32:23;;;;;;;;;11.33;11.33;;;;;28.88;27.32;101467.00;5078194;28;45554;-83
2022/03/16 01:34:49;;;;;;;;;11.00;11.00;;;;;28.91;27.27;101491.41;5078240;28;45446;-83
2022/03/16 01:37:14;;;;;;;;;13.00;12.67;;;;;28.91;27.38;101505.06;5070415;28;45844;-85
2022/03/16 01:39:39;;;;;;;;;14.00;14.00;;;;;28.67;27.42;101473.44;5056730;28;45883;-79
2022/03/16 01:42:05;;;;;;;;;14.33;13.00;;;;;28.90;26.97;101494.22;5083082;27;45496;-80
2022/03/16 01:44:46;;;;;;;;;15.00;13.67;;;;;28.74;27.57;101481.28;5057863;28;45535;-81
2022/03/16 01:47:12;;;;;;;;;12.00;12.00;;;;;28.86;27.34;101498.06;5057466;28;45485;-81
2022/03/16 01:49:38;;;;;;;;;13.00;12.67;;;;;28.89;27.20;101501.53;5057378;28;45454;-81
2022/03/16 01:52:05;;;;;;;;;18.67;14.00;;;;;28.94;27.55;101495.84;5055897;28;45472;-81
2022/03/16 01:54:30;;;;;;;;;15.00;15.00;;;;;28.77;27.36;101476.66;5090337;27;45422;-82
2022/03/16 01:56:56;;;;;;;;;13.67;13.67;;;;;28.79;27.62;101472.00;5057338;28;45415;-81
2022/03/16 01:59:22;;;;;;;;;16.67;14.67;;;;;28.91;27.36;101498.75;5057232;28;45389;-82
2022/03/16 02:01:47;;;;;;;;;15.00;14.33;;;;;28.69;27.21;101479.72;5057437;28;45337;-82
2022/03/16 02:04:12;;;;;;;;;16.67;15.00;;;;;28.83;27.45;101498.19;5056229;28;45353;-87
2022/03/16 02:06:38;;;;;;;;;14.67;13.67;;;;;28.95;27.24;101500.38;5057276;28;46738;-82
2022/03/16 02:09:03;;;;;;;;;15.67;13.67;;;;;28.91;27.09;101501.47;5055863;28;45342;-83
2022/03/16 02:11:28;;;;;;;;;14.33;12.67;;;;;28.79;27.20;101492.00;5055926;28;45842;-83
2022/03/16 02:13:54;;;;;;;;;16.00;14.00;;;;;28.64;27.17;101474.47;5057569;28;45320;-83
2022/03/16 02:16:19;;;;;;;;;16.00;15.67;;;;;28.71;27.03;101465.03;5057046;28;46047;-83
2022/03/16 02:18:45;;;;;;;;;17.00;15.67;;;;;28.74;26.96;101475.81;5057259;28;45352;-83
2022/03/16 02:21:12;;;;;;;;;14.33;13.67;;;;;28.92;27.10;101497.78;5056715;28;45388;-83
2022/03/16 02:23:38;;;;;;;;;20.00;17.67;;;;;28.84;27.21;101494.53;5057190;28;45461;-83
2022/03/16 02:26:03;;;;;;;;;15.33;14.00;;;;;28.73;27.38;101492.28;5057144;28;45208;-81
2022/03/16 02:28:29;;;;;;;;;15.00;13.00;;;;;28.72;27.35;101499.59;5073070;28;45635;-81
2022/03/16 02:30:55;;;;;;;;;16.67;15.00;;;;;28.72;27.26;101493.22;5077558;27;45502;-83
2022/03/16 02:33:20;;;;;;;;;18.33;14.33;;;;;28.58;27.45;101458.34;5077127;27;45379;-84
2022/03/16 02:35:47;;;;;;;;;11.67;11.00;;;;;28.74;27.46;101485.88;5076411;27;46357;-81
2022/03/16 02:38:12;;;;;;;;;14.33;14.33;;;;;28.62;27.28;101453.63;5076865;27;45344;-81
2022/03/16 02:40:38;;;;;;;;;19.67;16.33;;;;;28.79;27.42;101480.19;5076965;27;45347;-81
2022/03/16 02:43:04;;;;;;;;;18.67;16.00;;;;;28.61;27.17;101432.72;5077306;27;45588;-81
2022/03/16 02:45:29;;;;;;;;;15.67;15.33;;;;;28.72;27.18;101455.91;5076531;27;45387;-81
2022/03/16 02:47:55;;;;;;;;;17.67;16.00;;;;;28.55;27.25;101443.00;5075982;28;45409;-83
2022/03/16 02:50:20;;;;;;;;;15.67;15.67;;;;;28.46;26.89;101409.78;5075050;28;45408;-83
2022/03/16 02:52:46;;;;;;;;;16.67;16.67;;;;;28.88;27.22;101480.66;5077196;27;45268;-83
2022/03/16 02:55:13;;;;;;;;;19.67;17.33;;;;;28.88;27.05;101471.56;5075692;27;46718;-81
2022/03/16 02:57:39;;;;;;;;;20.33;19.67;;;;;28.59;27.52;101449.19;5076850;28;45311;-81
2022/03/16 03:00:07;;;;;;;;;12.67;11.67;;;;;28.74;27.08;101467.63;5076760;28;45600;-82
2022/03/16 03:02:32;;;;;;;;;16.00;15.67;;;;;28.61;27.28;101457.31;5076640;27;45301;-82
2022/03/16 03:04:58;;;;;;;;;18.00;14.67;;;;;28.74;27.10;101484.00;5091841;27;46955;-82
2022/03/16 03:07:23;;;;;;;;;14.33;14.33;;;;;28.57;27.30;101456.56;5075257;28;45362;-82
2022/03/16 03:09:49;;;;;;;;;18.00;15.33;;;;;28.68;27.44;101470.66;5076807;27;45443;-82
2022/03/16 03:12:14;;;;;;;;;19.00;19.00;;;;;28.60;27.39;101450.09;5076426;28;45633;-82
2022/03/16 03:14:40;;;;;;;;;20.67;19.00;;;;;28.60;27.24;101471.94;5076258;27;45907;-82
2022/03/16 03:17:06;;;;;;;;;18.00;16.00;;;;;28.55;27.30;101475.75;5076465;28;45422;-82
2022/03/16 03:19:31;;;;;;;;;20.00;18.67;;;;;28.56;27.49;101476.63;5076147;27;45344;-82
2022/03/16 03:21:56;;;;;;;;;18.33;16.67;;;;;28.45;27.27;101462.56;5076457;27;45353;-82
2022/03/16 03:24:22;;;;;;;;;22.33;20.00;;;;;28.49;27.48;101454.16;5076373;28;46293;-82
2022/03/16 03:26:47;;;;;;;;;18.00;16.00;;;;;28.46;27.42;101448.84;5076202;27;45336;-82
2022/03/16 03:29:14;;;;;;;;;21.67;21.00;;;;;28.54;27.27;101478.56;5076502;27;45398;-82
2022/03/16 03:31:40;;;;;;;;;17.33;16.00;;;;;28.50;27.57;101471.47;5074767;28;45636;-82
2022/03/16 03:34:05;;;;;;;;;19.00;18.33;;;;;28.51;27.50;101470.47;5075954;27;45351;-82
2022/03/16 03:36:31;;;;;;;;;18.00;17.00;;;;;28.50;27.50;101468.72;5076066;27;45404;-83
2022/03/16 03:38:57;;;;;;;;;21.00;18.67;;;;;28.45;27.57;101477.09;5076410;27;45402;-82
2022/03/16 03:41:22;;;;;;;;;18.00;14.33;;;;;28.39;27.57;101474.66;5075958;28;45323;-82
2022/03/16 03:43:48;;;;;;;;;22.33;18.67;;;;;28.30;27.63;101450.50;5075826;27;46206;-82
2022/03/16 03:46:13;;;;;;;;;21.33;20.00;;;;;28.41;27.54;101470.03;5076084;27;45381;-82
2022/03/16 03:48:39;;;;;;;;;22.00;20.67;;;;;28.29;27.51;101467.84;5075860;28;45387;-83
2022/03/16 03:51:04;;;;;;;;;18.67;18.67;;;;;28.30;27.39;101447.75;5076248;27;45228;-82
2022/03/16 03:53:30;;;;;;;;;14.67;13.33;;;;;28.47;27.39;101463.41;5075673;27;45506;-82
2022/03/16 03:55:55;;;;;;;;;20.33;18.67;;;;;28.47;27.42;101471.59;5076003;27;45294;-82
2022/03/16 03:58:21;;;;;;;;;20.00;19.00;;;;;28.45;27.47;101484.41;5075800;28;45478;-83
2022/03/16 04:00:46;;;;;;;;;20.67;20.33;;;;;28.41;27.39;101476.38;5076026;27;45367;-83
2022/03/16 04:03:11;;;;;;;;;20.00;16.33;;;;;27.95;27.31;101409.28;5075368;28;46070;-83
2022/03/16 04:05:37;;;;;;;;;23.00;19.00;;;;;28.21;27.39;101457.25;5075228;28;50429;-83
2022/03/16 04:08:02;;;;;;;;;21.67;19.00;;;;;28.15;27.81;101449.34;5075922;28;45463;-83
2022/03/16 04:10:28;;;;;;;;;21.00;19.00;;;;;28.12;27.49;101447.63;5075167;27;45568;-83
2022/03/16 04:12:53;;;;;;;;;21.33;19.33;;;;;28.21;27.50;101443.59;5075298;27;46512;-83
2022/03/16 04:15:20;;;;;;;;;17.00;17.00;;;;;28.25;27.49;101456.16;5074007;28;45468;-82
2022/03/16 04:17:46;;;;;;;;;21.00;19.33;;;;;28.31;27.72;101460.47;5073735;28;45411;-82
2022/03/16 04:20:11;;;;;;;;;14.67;14.67;;;;;28.23;27.58;101441.72;5075235;27;45344;-82
2022/03/16 04:22:37;;;;;;;;;19.33;18.00;;;;;28.14;27.73;101429.34;5075068;28;45370;-82
2022/03/16 04:25:03;;;;;;;;;22.67;20.33;;;;;28.29;27.45;101435.97;5074204;27;45406;-82
2022/03/16 04:27:29;;;;;;;;;18.67;18.00;;;;;28.44;27.40;101448.06;5075214;27;45473;-82
2022/03/16 04:29:55;;;;;;;;;21.33;20.33;;;;;28.39;27.37;101441.91;5075502;28;45298;-82
2022/03/16 04:32:20;;;;;;;;;22.33;22.33;;;;;28.35;27.58;101427.50;5074781;27;45317;-82
2022/03/16 04:34:49;;;;;;;;;23.00;21.67;;;;;28.30;27.31;101415.94;5074082;28;46077;-82
2022/03/16 04:37:14;;;;;;;;;18.33;18.00;;;;;28.35;27.31;101441.16;5075425;28;45169;-82
2022/03/16 04:39:39;;;;;;;;;20.00;18.67;;;;;28.30;27.27;101437.75;5075239;27;45262;-82
2022/03/16 04:42:05;;;;;;;;;22.00;19.33;;;;;28.30;27.32;101432.31;5075230;27;45577;-82
2022/03/16 04:44:30;;;;;;;;;22.00;21.67;;;;;28.39;27.40;101442.78;5074950;27;45526;-83
2022/03/16 04:46:56;;;;;;;;;21.00;16.67;;;;;28.46;27.29;101426.16;5074990;28;45473;-82
2022/03/16 04:49:21;;;;;;;;;25.00;21.00;;;;;28.48;27.23;101427.84;5075463;28;45511;-82
2022/03/16 04:51:46;;;;;;;;;21.67;21.00;;;;;28.38;27.18;101432.84;5074883;27;45396;-83
2022/03/16 04:54:14;;;;;;;;;20.00;18.67;;;;;28.41;27.16;101418.19;5074677;28;54415;-83
2022/03/16 04:56:40;;;;;;;;;23.33;22.67;;;;;28.43;27.23;101435.34;5075087;28;45299;-82
2022/03/16 04:59:05;;;;;;;;;22.33;21.00;;;;;28.28;27.38;101420.56;5075333;27;45343;-83
2022/03/16 05:01:31;;;;;;;;;22.00;19.33;;;;;28.47;27.16;101438.84;5074465;27;45999;-81
2022/03/16 05:03:56;;;;;;;;;22.00;18.33;;;;;28.42;27.04;101444.50;5075112;27;45387;-81
2022/03/16 05:06:22;;;;;;;;;23.00;20.33;;;;;28.39;27.31;101442.78;5075115;27;45461;-81
2022/03/16 05:08:47;;;;;;;;;21.33;18.67;;;;;28.29;27.25;101435.97;5074964;28;45419;-85
2022/03/16 05:11:14;;;;;;;;;21.67;17.67;;;;;28.16;27.18;101423.84;5075085;28;45951;-84
2022/03/16 05:13:40;;;;;;;;;24.33;18.00;;;;;28.27;27.35;101412.44;5074835;27;45266;-82
2022/03/16 05:16:06;;;;;;;;;19.67;19.67;;;;;28.27;26.99;101405.16;5074728;27;45370;-83
2022/03/16 05:18:32;;;;;;;;;24.00;20.00;;;;;28.28;27.14;101386.94;5075571;28;45387;-83
2022/03/16 05:20:58;;;;;;;;;22.67;19.00;;;;;28.57;26.86;101435.59;5076708;28;45919;-83
2022/03/16 05:23:23;;;;;;;;;21.33;18.33;;;;;28.54;26.88;101430.28;5078172;28;45446;-83
2022/03/16 05:25:48;;;;;;;;;29.00;23.00;;;;;28.35;27.18;101397.47;5078345;27;45394;-83
2022/03/16 05:28:13;;;;;;;;;21.67;17.33;;;;;28.50;27.11;101425.06;5078180;28;45459;-83
2022/03/16 05:30:39;;;;;;;;;23.00;18.67;;;;;28.27;26.98;101383.34;5077780;27;45925;-82
2022/03/16 05:33:04;;;;;;;;;28.00;28.00;;;;;28.32;27.15;101438.56;5078093;27;45509;-83
2022/03/16 05:35:33;;;;;;;;;21.33;19.33;;;;;28.35;27.23;101440.28;5077887;27;45382;-83
2022/03/16 05:38:00;;;;;;;;;22.00;21.00;;;;;28.29;26.83;101429.66;5078164;28;45258;-82
2022/03/16 05:40:25;;;;;;;;;18.67;18.67;;;;;28.20;27.12;101411.84;5077656;27;46587;-82
2022/03/16 05:42:51;;;;;;;;;22.33;20.00;;;;;28.44;27.11;101455.34;5077448;28;45340;-83
2022/03/16 05:45:16;;;;;;;;;22.00;21.00;;;;;28.29;27.08;101438.69;5077392;28;45414;-83
2022/03/16 05:47:42;;;;;;;;;23.33;22.67;;;;;28.10;27.42;101448.66;5077504;27;45405;-83
2022/03/16 05:50:07;;;;;;;;;22.33;21.67;;;;;28.08;27.60;101442.38;5077732;27;45461;-83
2022/03/16 05:52:32;;;;;;;;;21.33;21.33;;;;;28.15;27.43;101428.41;5057309;28;45432;-83
2022/03/16 05:54:59;;;;;;;;;20.00;20.00;;;;;28.44;27.21;101458.97;5057746;28;45550;-82
2022/03/16 05:57:25;;;;;;;;;21.67;20.67;;;;;28.42;27.12;101452.69;5073106;28;45518;-83
2022/03/16 05:59:51;;;;;;;;;20.33;18.67;;;;;28.40;27.07;101451.88;5056675;28;45401;-82
2022/03/16 06:02:18;;;;;;;;;21.33;18.67;;;;;28.52;27.02;101455.88;5057565;28;45491;-83
2022/03/16 06:04:44;;;;;;;;;20.67;20.67;;;;;28.48;26.85;101448.78;5057278;28;45407;-83
2022/03/16 06:07:10;;;;;;;;;22.33;21.00;;;;;28.47;26.76;101453.38;5057254;28;45559;-82
2022/03/16 06:09:36;;;;;;;;;21.33;20.33;;;;;28.36;26.98;101439.31;5056799;28;45930;-83
2022/03/16 06:12:03;;;;;;;;;21.67;19.00;;;;;28.52;26.91;101464.97;5055557;28;45925;-82
2022/03/16 06:14:29;;;;;;;;;25.33;25.00;;;;;28.60;27.00;101464.63;5056763;28;45321;-82
2022/03/16 06:16:54;;;;;;;;;27.00;24.33;;;;;28.25;26.86;101428.88;5057055;28;45270;-83
2022/03/16 06:19:20;;;;;;;;;22.33;21.00;;;;;28.19;27.43;101431.91;5057021;28;46137;-82
2022/03/16 06:21:46;;;;;;;;;22.00;20.67;;;;;28.47;27.16;101455.22;5056378;28;45342;-82
2022/03/16 06:24:11;;;;;;;;;20.33;19.00;;;;;28.45;27.27;101455.25;5057190;28;45385;-82
2022/03/16 06:26:37;;;;;;;;;18.67;18.67;;;;;28.47;27.14;101449.78;5072384;28;45917;-83
2022/03/16 06:29:03;;;;;;;;;26.67;22.33;;;;;28.35;27.04;101424.78;5075240;28;45303;-83
2022/03/16 06:31:28;;;;;;;;;28.67;22.67;;;;;28.37;27.35;101457.47;5076663;28;45407;-84
2022/03/16 06:33:53;;;;;;;;;22.33;20.67;;;;;28.34;27.30;101463.06;5077030;28;45343;-83
2022/03/16 06:36:18;;;;;;;;;24.00;23.33;;;;;28.16;27.31;101429.31;5077135;28;45532;-84
2022/03/16 06:38:44;;;;;;;;;24.67;23.67;;;;;28.51;27.25;101479.56;5076669;27;46133;-84
2022/03/16 06:41:09;;;;;;;;;25.67;21.33;;;;;28.46;26.91;101443.41;5077115;28;45409;-83
2022/03/16 06:43:36;;;;;;;;;23.33;20.00;;;;;28.64;26.80;101477.22;5075380;28;45384;-83
2022/03/16 06:46:01;;;;;;;;;26.67;25.00;;;;;28.56;26.79;101458.44;5076823;27;45462;-83
2022/03/16 06:48:30;;;;;;;;;25.67;23.67;;;;;28.58;27.06;101480.19;5076546;28;45431;-82
2022/03/16 06:50:55;;;;;;;;;23.33;20.67;;;;;28.56;26.90;101476.63;5076432;28;45383;-80
2022/03/16 06:53:20;;;;;;;;;20.33;20.00;;;;;28.36;27.00;101447.50;5077074;28;45230;-81
2022/03/16 06:55:46;;;;;;;;;21.67;21.33;;;;;28.41;26.88;101453.66;5076709;27;45432;-81
2022/03/16 06:58:11;;;;;;;;;25.67;21.00;;;;;28.62;27.13;101489.13;5074827;28;46008;-81
2022/03/16 07:00:37;;;;;;;;;21.67;21.33;;;;;28.65;27.14;101492.63;5076694;27;45356;-81
2022/03/16 07:03:05;;;;;;;;;27.00;24.33;;;;;28.46;27.11;101495.25;5076666;27;45443;-82
2022/03/16 07:05:36;;;;;;;;;33.67;28.33;;;;;28.32;27.43;101501.31;5076929;27;45414;-81
2022/03/16 07:08:07;;;;;;;;;25.67;22.67;;;;;28.02;27.94;101503.56;5075183;28;47599;-83
2022/03/16 07:10:34;;;;;;;;;27.33;24.33;;;;;27.88;27.91;101485.88;5077114;27;45532;-83
2022/03/16 07:12:59;;;;;;;;;27.33;26.00;;;;;28.34;27.50;101499.44;5075593;27;45467;-84
2022/03/16 07:15:25;;;;;;;;;28.33;26.00;;;;;28.57;27.34;101495.66;5076209;28;45523;-84
2022/03/16 07:17:50;;;;;;;;;24.33;23.00;;;;;28.36;27.41;101442.94;5076270;27;45561;-88
2022/03/16 07:20:16;;;;;;;;;31.00;24.00;;;;;28.43;27.12;101446.28;5078549;27;45414;-88
2022/03/16 07:22:42;;;;;;;;;29.00;26.33;;;;;28.52;27.42;101464.97;5077680;27;45401;-89
2022/03/16 07:25:11;;;;;;;;;33.33;29.67;;;;;28.40;27.10;101450.03;5077263;27;45489;-89
2022/03/16 07:27:38;;;;;;;;;32.00;28.67;;;;;28.69;27.15;101491.53;5076828;27;45620;-87
2022/03/16 07:30:06;;;;;;;;;30.67;28.00;;;;;28.30;27.48;101410.47;5076457;28;45489;-87
2022/03/16 07:32:32;;;;;;;;;28.33;24.67;;;;;28.78;26.95;101494.81;5075668;28;45241;-88
2022/03/16 07:34:58;;;;;;;;;25.33;24.00;;;;;28.26;27.11;101416.16;5075451;28;45385;-89
2022/03/16 07:37:23;;;;;;;;;32.00;27.33;;;;;28.23;27.07;101404.41;5075519;28;47897;-88
2022/03/16 07:39:49;;;;;;;;;23.33;22.33;;;;;28.41;27.15;101435.44;5075972;27;45532;-88
2022/03/16 07:42:14;;;;;;;;;29.67;26.00;;;;;27.96;26.92;101357.41;5075045;27;45327;-89
2022/03/16 07:44:40;;;;;;;;;35.67;32.00;;;;;28.77;27.23;101498.50;5077746;28;45417;-89
2022/03/16 07:47:07;;;;;;;;;27.00;26.67;;;;;28.21;27.19;101389.03;5076420;28;46231;-89
2022/03/16 07:49:32;;;;;;;;;28.67;26.00;;;;;28.53;26.63;101439.44;5077903;27;45364;-88
2022/03/16 07:51:57;;;;;;;;;26.67;23.67;;;;;28.57;26.91;101412.91;5075612;28;45433;-86
2022/03/16 07:54:23;;;;;;;;;30.00;25.00;;;;;29.04;26.61;101499.97;5076084;28;49756;-86
2022/03/16 07:56:48;;;;;;;;;32.67;27.67;;;;;28.62;26.64;101420.84;5076296;28;45477;-87
2022/03/16 07:59:14;;;;;;;;;31.00;27.33;;;;;28.84;26.89;101500.84;5075574;28;45881;-84
2022/03/16 08:01:41;;;;;;;;;36.33;33.00;;;;;28.67;27.17;101484.38;5076222;27;45412;-83
2022/03/16 08:04:07;;;;;;;;;30.00;28.67;;;;;28.54;27.07;101443.06;5075655;27;45412;-85
2022/03/16 08:06:33;;;;;;;;;27.67;27.67;;;;;28.51;26.69;101400.41;5108555;27;47244;-86
2022/03/16 08:08:59;;;;;;;;;34.00;26.00;;;;;28.25;27.04;101363.41;5108138;27;45554;-83
2022/03/16 08:11:25;;;;;;;;;28.67;24.33;;;;;28.84;26.84;101467.22;5075727;28;45387;-85
2022/03/16 08:13:50;;;;;;;;;31.00;29.00;;;;;28.94;26.95;101486.78;5054140;28;45568;-82
2022/03/16 08:16:16;;;;;;;;;30.00;27.00;;;;;28.53;27.01;101419.44;5054325;28;45712;-84
2022/03/16 08:18:41;;;;;;;;;31.00;27.33;;;;;28.89;26.90;101449.66;5055233;28;45328;-84
2022/03/16 08:21:07;;;;;;;;;31.33;29.00;;;;;28.97;26.72;101446.53;5054557;28;45453;-84
2022/03/16 08:23:32;;;;;;;;;36.00;30.33;;;;;29.09;26.89;101472.41;5053328;28;45451;-83
2022/03/16 08:25:58;;;;;;;;;27.00;24.67;;;;;29.03;26.75;101443.53;5092971;27;45463;-84
2022/03/16 08:28:24;;;;;;;;;38.00;32.67;;;;;29.31;26.42;101479.59;5081560;27;45481;-82
2022/03/16 08:30:50;;;;;;;;;30.00;26.33;;;;;29.28;26.83;101475.16;5086578;27;45417;-82
2022/03/16 08:33:17;;;;;;;;;24.67;23.00;;;;;29.07;26.42;101436.97;5083555;27;45419;-83
2022/03/16 08:35:42;;;;;;;;;27.00;25.67;;;;;28.87;26.45;101388.72;5058679;27;47411;-82
2022/03/16 08:38:08;;;;;;;;;32.33;29.00;;;;;28.87;26.41;101390.59;5074763;28;45352;-82
2022/03/16 08:40:34;;;;;;;;;31.33;27.33;;;;;29.28;26.59;101442.38;5075337;27;45253;-82
2022/03/16 08:42:59;;;;;;;;;29.67;26.00;;;;;29.45;26.39;101481.66;5074490;28;45553;-82
2022/03/16 08:45:25;;;;;;;;;28.67;27.67;;;;;29.17;26.30;101426.47;5074426;28;45453;-81
2022/03/16 08:47:50;;;;;;;;;28.00;25.33;;;;;29.38;26.52;101471.03;5075031;28;45225;-82
2022/03/16 08:50:16;;;;;;;;;24.33;23.33;;;;;29.30;26.67;101451.41;5078810;27;45507;-81
2022/03/16 08:52:41;;;;;;;;;30.00;24.33;;;;;29.34;26.35;101447.56;5075610;27;45459;-82
2022/03/16 08:55:07;;;;;;;;;29.00;28.67;;;;;29.19;25.96;101410.88;5077646;28;46560;-82
2022/03/16 08:57:33;;;;;;;;;23.67;23.33;;;;;29.69;26.43;101501.44;5078222;27;45385;-82
2022/03/16 08:59:58;;;;;;;;;25.00;24.33;;;;;29.77;26.05;101491.00;5078413;27;45441;-81
2022/03/16 09:02:24;;;;;;;;;28.67;26.33;;;;;29.80;25.83;101504.53;5078422;28;45522;-83
2022/03/16 09:04:50;;;;;;;;;30.67;26.00;;;;;29.75;26.07;101493.81;5078168;28;45938;-82
2022/03/16 09:07:16;;;;;;;;;30.33;28.67;;;;;29.64;26.07;101493.47;5077464;27;45466;-82
2022/03/16 09:09:42;;;;;;;;;30.00;25.67;;;;;29.63;26.13;101494.41;5078055;27;45419;-83
2022/03/16 09:12:11;;;;;;;;;28.33;24.67;;;;;29.61;25.88;101488.16;5072125;27;45617;-83
2022/03/16 09:14:37;;;;;;;;;26.33;25.00;;;;;29.79;26.18;101508.25;5057854;28;45415;-83
2022/03/16 09:17:03;;;;;;;;;26.33;25.33;;;;;29.35;26.00;101454.81;5062744;27;45559;-83
2022/03/16 09:19:28;;;;;;;;;30.33;23.67;;;;;29.20;26.21;101471.91;5097269;27;45355;-83
2022/03/16 09:21:54;;;;;;;;;28.67;26.00;;;;;29.59;26.35;101506.47;5097614;27;45431;-83
2022/03/16 09:24:24;;;;;;;;;30.00;26.67;;;;;29.43;26.24;101474.41;5074827;27;46221;-85
2022/03/16 09:26:54;;;;;;;;;28.00;28.00;;;;;29.81;26.26;101516.38;5073917;28;45677;-85
2022/03/16 09:29:23;;;;;;;;;26.00;25.67;;;;;29.70;25.73;101459.47;5077336;28;45438;-85
2022/03/16 09:31:48;;;;;;;;;34.00;29.00;;;;;29.47;25.83;101408.69;5078029;27;45515;-85
2022/03/16 09:34:14;;;;;;;;;35.67;30.67;;;;;29.45;25.76;101400.53;5075872;28;47103;-85
2022/03/16 09:36:42;;;;;;;;;35.67;31.00;;;;;29.59;25.73;101449.06;5076446;28;47453;-84
2022/03/16 09:39:08;;;;;;;;;35.33;30.00;;;;;29.50;26.04;101505.09;5077886;27;46493;-84
2022/03/16 09:41:33;;;;;;;;;32.67;30.33;;;;;28.97;26.65;101446.53;5076685;28;45466;-85
2022/03/16 09:44:00;;;;;;;;;30.33;26.33;;;;;29.21;26.67;101522.84;5077534;27;45489;-85
2022/03/16 09:46:29;;;;;;;;;31.33;30.00;;;;;28.89;26.58;101448.78;5077751;27;45561;-85
2022/03/16 09:48:54;;;;;;;;;34.00;29.67;;;;;29.12;26.64;101501.44;5067689;27;45367;-84
2022/03/16 09:51:20;;;;;;;;;27.67;24.00;;;;;29.63;26.09;101504.47;5085765;27;45443;-84
2022/03/16 09:53:46;;;;;;;;;32.33;30.00;;;;;29.97;26.13;101516.50;5077762;27;46146;-85
2022/03/16 09:56:12;;;;;;;;;29.67;26.67;;;;;29.31;25.88;101357.53;5077529;27;45414;-85
2022/03/16 09:58:37;;;;;;;;;29.00;26.67;;;;;30.36;25.43;101497.13;5077940;27;45396;-85
2022/03/16 10:01:05;;;;;;;;;34.33;29.00;;;;;30.24;25.48;101474.03;5097855;27;45668;-85
2022/03/16 10:03:31;;;;;;;;;30.00;28.67;;;;;30.18;25.45;101440.63;5077737;27;45459;-85
2022/03/16 10:05:58;;;;;;;;;31.00;28.00;;;;;30.34;25.16;101455.28;5070189;27;45438;-86
2022/03/16 10:08:32;;;;;;;;;27.33;27.33;;;;;30.72;25.14;101492.56;5055983;28;45389;-86
2022/03/16 10:14:14;;;;;;;;;32.00;29.33;;;;;30.09;25.52;101418.25;5056862;28;45947;-85
2022/03/16 10:19:48;;;;;;;;;30.33;28.33;;;;;30.33;25.11;101433.47;5073525;27;45561;-85
2022/03/16 10:22:25;;;;;;;;;28.00;26.00;;;;;30.71;25.30;101480.69;5097856;27;45341;-84
2022/03/16 10:24:54;;;;;;;;;30.33;26.67;;;;;30.63;25.73;101463.78;5083378;27;45689;-85
2022/03/16 10:27:22;;;;;;;;;34.00;31.33;;;;;30.63;24.75;101463.78;5076308;27;45510;-85
2022/03/16 10:29:50;;;;;;;;;32.33;29.67;;;;;30.69;25.55;101468.97;5076619;27;45439;-86
2022/03/16 10:32:16;;;;;;;;;35.33;30.67;;;;;30.22;25.33;101401.19;5076317;27;45375;-85
2022/03/16 10:34:52;;;;;;;;;29.00;28.33;;;;;30.65;24.96;101483.78;5076848;27;45520;-85
2022/03/16 10:37:22;;;;;;;;;31.67;31.33;;;;;30.30;25.30;101436.38;5077131;27;45320;-84
2022/03/16 10:39:50;;;;;;;;;29.00;26.33;;;;;30.48;25.63;101467.34;5076600;27;45391;-84
2022/03/16 10:48:01;;;;;;;;;26.33;26.33;;;;;30.78;25.56;101482.13;5076114;28;45397;-85
2022/03/16 10:50:26;;;;;;;;;28.00;26.00;;;;;30.68;25.60;101436.19;5084231;27;45503;-85
2022/03/16 10:52:53;;;;;;;;;28.00;27.00;;;;;31.01;25.41;101477.25;5081201;27;45348;-84
2022/03/16 10:55:22;;;;;;;;;25.33;24.00;;;;;30.73;25.19;101424.00;5056293;28;45485;-84
2022/03/16 10:57:51;;;;;;;;;27.00;26.33;;;;;30.63;25.32;101389.84;5055096;28;45383;-85
2022/03/16 11:00:17;;;;;;;;;28.33;26.00;;;;;31.15;24.64;101471.00;5084536;27;45418;-85
2022/03/16 11:02:44;;;;;;;;;31.67;30.33;;;;;30.88;25.20;101403.06;5096616;27;45699;-84
2022/03/16 11:05:10;;;;;;;;;28.00;26.33;;;;;31.18;25.29;101451.69;5092346;27;48101;-84
2022/03/16 11:07:36;;;;;;;;;31.00;28.33;;;;;31.28;24.54;101444.69;5108934;27;45481;-84
2022/03/16 11:10:04;;;;;;;;;30.00;27.67;;;;;31.03;24.84;101376.69;5076198;28;45488;-83
2022/03/16 11:15:18;;;;;;;;;30.67;29.33;;;;;31.59;25.26;101434.69;5075931;27;45503;-85
2022/03/16 11:17:44;;;;;;;;;32.33;29.33;;;;;31.68;24.78;101437.88;5096501;27;45785;-83